Time;durP1;ratioP1;P1;durP2;ratioP2;P2;SDS_P1;SDS_P2;PMS_P1;PMS_P2;Temp;Humidity;BMP_temperature;BMP_pressure;BME280_temperature;BME280_humidity;BME280_pressure;Samples;Min_cycle;Max_cycle;Signal;HPM_P1;HPM_P2
2022/04/15 00:00:10;;;;;;;23.30;15.40;;;9.10;99.90;;;;;;4988859;28;21024;-84
2022/04/15 00:02:37;;;;;;;21.83;15.83;;;9.10;99.90;;;;;;4986395;28;20310;-83
2022/04/15 00:05:29;;;;;;;23.43;16.27;;;9.10;99.90;;;;;;4985948;28;20229;-82
2022/04/15 00:07:52;;;;;;;17.73;15.00;;;9.10;99.90;;;;;;5001199;28;20219;-82
2022/04/15 00:10:20;;;;;;;21.77;16.57;;;9.00;99.90;;;;;;5007361;28;20199;-82
2022/04/15 00:12:47;;;;;;;18.27;14.20;;;9.00;99.90;;;;;;5005313;28;20231;-81
2022/04/15 00:15:14;;;;;;;20.03;16.30;;;9.00;99.90;;;;;;4987156;28;20243;-83
2022/04/15 00:17:41;;;;;;;22.20;17.80;;;9.10;99.90;;;;;;4986805;28;20318;-80
2022/04/15 00:20:10;;;;;;;21.80;16.67;;;9.10;99.90;;;;;;4987593;28;20208;-82
2022/04/15 00:22:37;;;;;;;23.07;17.77;;;9.00;99.90;;;;;;5023005;22;20597;-84
2022/04/15 00:25:04;;;;;;;30.93;19.77;;;9.00;99.90;;;;;;5024575;28;20207;-81
2022/04/15 00:27:33;;;;;;;29.03;19.93;;;9.00;99.90;;;;;;5026720;28;20297;-82
2022/04/15 00:29:59;;;;;;;26.47;18.40;;;8.90;99.90;;;;;;5031854;28;20203;-83
2022/04/15 00:32:26;;;;;;;25.33;20.43;;;8.90;99.90;;;;;;5032634;28;20662;-83
2022/04/15 00:34:53;;;;;;;29.77;22.03;;;8.90;99.90;;;;;;5032329;28;20298;-83
2022/04/15 00:37:20;;;;;;;30.47;22.33;;;8.90;99.90;;;;;;5017217;28;20207;-83
2022/04/15 00:39:47;;;;;;;30.33;21.17;;;9.00;99.90;;;;;;5012909;28;20859;-83
2022/04/15 00:42:15;;;;;;;31.63;21.43;;;9.00;99.90;;;;;;5011808;28;20230;-81
2022/04/15 00:44:43;;;;;;;25.57;20.10;;;9.00;99.90;;;;;;5012462;28;20206;-83
2022/04/15 00:47:18;;;;;;;25.50;18.30;;;9.00;99.90;;;;;;5011428;28;20222;-83
2022/04/15 00:49:44;;;;;;;20.33;15.50;;;8.90;99.90;;;;;;5011566;28;20210;-82
2022/04/15 00:52:14;;;;;;;20.80;16.17;;;8.90;99.90;;;;;;5011825;28;20210;-82
2022/04/15 00:54:43;;;;;;;21.67;15.57;;;8.90;99.90;;;;;;5010829;28;20215;-82
2022/04/15 00:57:16;;;;;;;25.33;17.33;;;8.90;99.90;;;;;;5012774;28;20237;-83
2022/04/15 00:59:46;;;;;;;23.90;16.73;;;9.00;99.90;;;;;;5011099;28;20564;-82
2022/04/15 01:02:17;;;;;;;27.77;16.13;;;8.90;99.90;;;;;;5012099;28;20219;-84
2022/04/15 01:04:45;;;;;;;19.37;15.57;;;9.00;99.90;;;;;;5012391;28;20201;-83
2022/04/15 01:07:15;;;;;;;23.23;15.57;;;9.00;99.90;;;;;;5011689;28;20295;-79
2022/04/15 01:09:44;;;;;;;21.07;13.80;;;9.00;99.90;;;;;;5012911;28;20615;-84
2022/04/15 01:12:12;;;;;;;19.63;13.47;;;9.00;99.90;;;;;;5012251;28;20507;-83
2022/04/15 01:14:39;;;;;;;18.97;13.77;;;9.10;99.90;;;;;;5007920;28;20191;-83
2022/04/15 01:17:08;;;;;;;24.47;13.67;;;9.20;99.90;;;;;;5012419;28;20207;-83
2022/04/15 01:19:34;;;;;;;24.30;14.13;;;9.20;99.90;;;;;;5011963;28;20216;-83
2022/04/15 01:22:04;;;;;;;20.40;12.90;;;9.20;99.90;;;;;;5009227;28;20243;-84
2022/04/15 01:24:32;;;;;;;18.40;14.33;;;9.10;99.90;;;;;;5018474;28;20198;-84
2022/04/15 01:26:59;;;;;;;20.33;14.20;;;9.10;99.90;;;;;;5031601;28;20285;-83
2022/04/15 01:29:27;;;;;;;20.93;14.73;;;9.10;99.90;;;;;;5021748;28;20211;-84
2022/04/15 01:31:54;;;;;;;22.53;14.60;;;9.10;99.90;;;;;;5012055;28;20207;-83
2022/04/15 01:34:21;;;;;;;21.07;13.80;;;9.10;99.90;;;;;;5023141;28;20214;-84
2022/04/15 01:36:48;;;;;;;22.33;14.20;;;9.10;99.90;;;;;;5031784;28;20210;-85
2022/04/15 01:39:15;;;;;;;19.10;14.20;;;9.10;99.90;;;;;;5031354;28;20214;-82
2022/04/15 01:41:45;;;;;;;26.33;14.50;;;9.10;99.90;;;;;;5021115;28;20230;-83
2022/04/15 01:44:15;;;;;;;21.30;14.23;;;9.10;99.90;;;;;;5027533;28;20217;-83
2022/04/15 01:46:42;;;;;;;20.03;13.83;;;9.10;99.90;;;;;;5027318;28;20894;-83
2022/04/15 01:49:09;;;;;;;21.77;13.97;;;9.10;99.90;;;;;;5029687;28;20272;-84
2022/04/15 01:51:36;;;;;;;16.20;12.40;;;9.20;99.90;;;;;;5021910;28;20498;-83
2022/04/15 01:54:03;;;;;;;20.17;12.27;;;9.20;99.90;;;;;;5011129;28;20203;-82
2022/04/15 01:56:30;;;;;;;20.03;12.03;;;9.20;99.90;;;;;;5006598;28;20211;-80
2022/04/15 01:58:58;;;;;;;20.90;11.80;;;9.10;99.90;;;;;;5007147;28;20196;-80
2022/04/15 02:01:25;;;;;;;16.30;11.93;;;9.20;99.90;;;;;;5006468;28;20235;-79
2022/04/15 02:03:51;;;;;;;17.83;11.80;;;9.20;99.90;;;;;;5006664;28;20210;-81
2022/04/15 02:06:18;;;;;;;16.87;12.03;;;9.10;99.90;;;;;;5006446;28;20215;-83
2022/04/15 02:08:45;;;;;;;15.07;10.93;;;9.20;99.90;;;;;;5006576;28;20199;-79
2022/04/15 02:11:12;;;;;;;16.33;10.77;;;9.30;99.90;;;;;;5018229;28;20210;-79
2022/04/15 02:13:39;;;;;;;14.97;10.40;;;9.20;99.90;;;;;;5025869;28;20198;-79
2022/04/15 02:16:07;;;;;;;12.03;9.33;;;9.10;99.90;;;;;;5025739;28;20210;-80
2022/04/15 02:18:34;;;;;;;16.53;9.40;;;9.00;99.90;;;;;;5024638;28;20602;-81
2022/04/15 02:21:00;;;;;;;18.20;11.37;;;9.10;99.90;;;;;;5025984;28;20206;-80
2022/04/15 02:23:27;;;;;;;17.40;11.43;;;9.10;99.90;;;;;;5025433;28;20235;-83
2022/04/15 02:25:54;;;;;;;19.73;11.70;;;9.00;99.90;;;;;;5024372;28;20219;-80
2022/04/15 02:28:21;;;;;;;16.67;11.53;;;9.00;99.90;;;;;;5025579;28;20198;-81
2022/04/15 02:30:48;;;;;;;17.10;11.43;;;9.00;99.90;;;;;;5016244;28;20218;-79
2022/04/15 02:33:16;;;;;;;17.17;11.47;;;9.00;99.90;;;;;;5005485;28;20226;-80
2022/04/15 02:35:43;;;;;;;20.47;11.13;;;8.90;99.90;;;;;;5006201;28;20214;-80
2022/04/15 02:38:10;;;;;;;19.20;11.30;;;8.90;99.90;;;;;;5007377;28;20203;-83
2022/04/15 02:40:36;;;;;;;17.00;11.60;;;8.90;99.90;;;;;;5026166;28;20218;-83
2022/04/15 02:43:04;;;;;;;18.83;12.13;;;8.90;99.90;;;;;;5027822;28;20233;-83
2022/04/15 02:45:31;;;;;;;15.60;12.20;;;8.90;99.90;;;;;;5026051;28;20210;-83
2022/04/15 02:47:58;;;;;;;16.70;12.53;;;8.80;99.90;;;;;;5014245;28;20206;-79
2022/04/15 02:50:28;;;;;;;19.67;13.80;;;8.80;99.90;;;;;;5027141;28;20202;-81
2022/04/15 02:52:55;;;;;;;18.60;14.33;;;8.80;99.90;;;;;;5027850;28;20221;-81
2022/04/15 02:55:21;;;;;;;17.97;14.87;;;8.80;99.90;;;;;;5028597;28;20215;-83
2022/04/15 02:57:48;;;;;;;17.07;13.57;;;8.80;99.90;;;;;;5010571;28;20203;-83
2022/04/15 03:00:15;;;;;;;16.40;13.33;;;8.80;99.90;;;;;;5009463;28;20645;-83
2022/04/15 03:02:42;;;;;;;19.00;14.07;;;8.80;99.90;;;;;;5010021;28;20227;-83
2022/04/15 03:05:10;;;;;;;17.90;13.87;;;8.80;99.90;;;;;;5009235;28;20207;-83
2022/04/15 03:07:38;;;;;;;16.13;13.23;;;8.80;99.90;;;;;;5009158;28;20207;-83
2022/04/15 03:10:07;;;;;;;16.60;12.80;;;8.80;99.90;;;;;;5009558;28;20215;-84
2022/04/15 03:12:34;;;;;;;18.87;11.83;;;8.80;99.90;;;;;;5010102;28;20231;-84
2022/04/15 03:15:01;;;;;;;20.13;13.23;;;8.80;99.90;;;;;;5009824;28;20288;-83
2022/04/15 03:17:28;;;;;;;16.63;12.10;;;8.80;99.90;;;;;;5009700;28;20210;-83
2022/04/15 03:19:54;;;;;;;16.40;12.10;;;8.80;99.90;;;;;;5009507;28;20218;-83
2022/04/15 03:22:22;;;;;;;16.13;12.60;;;8.90;99.90;;;;;;5015333;28;20252;-83
2022/04/15 03:24:51;;;;;;;19.33;12.90;;;9.00;99.90;;;;;;5029655;28;20202;-83
2022/04/15 03:27:18;;;;;;;15.93;12.13;;;8.90;99.90;;;;;;5028860;28;20206;-83
2022/04/15 03:29:45;;;;;;;14.27;12.47;;;8.90;99.90;;;;;;5010479;28;20285;-81
2022/04/15 03:32:12;;;;;;;15.67;12.17;;;8.90;99.90;;;;;;5009082;28;20196;-83
2022/04/15 03:34:39;;;;;;;16.07;11.87;;;8.90;99.90;;;;;;5009363;28;20230;-83
2022/04/15 03:37:06;;;;;;;16.57;11.37;;;8.80;99.90;;;;;;5010353;28;20203;-84
2022/04/15 03:39:32;;;;;;;14.17;11.00;;;8.80;99.90;;;;;;5008835;28;20215;-84
2022/04/15 03:42:01;;;;;;;14.70;11.33;;;8.90;99.90;;;;;;5008863;28;20662;-83
2022/04/15 03:44:27;;;;;;;16.37;10.20;;;8.90;99.90;;;;;;5008026;28;20203;-82
2022/04/15 03:46:54;;;;;;;12.13;9.53;;;8.90;99.90;;;;;;5008918;28;20226;-81
2022/04/15 03:49:21;;;;;;;12.33;10.20;;;8.90;99.90;;;;;;5025185;28;20221;-83
2022/04/15 03:51:48;;;;;;;12.83;9.50;;;8.90;99.90;;;;;;5023584;28;20190;-81
2022/04/15 03:54:15;;;;;;;14.10;9.67;;;8.80;99.90;;;;;;5007291;28;20207;-80
2022/04/15 03:56:41;;;;;;;12.57;9.47;;;8.80;99.90;;;;;;5006443;28;20207;-83
2022/04/15 03:59:10;;;;;;;12.23;10.30;;;8.80;99.90;;;;;;5006831;28;20191;-79
2022/04/15 04:01:36;;;;;;;14.13;10.40;;;8.80;99.90;;;;;;5005152;28;20203;-81
2022/04/15 04:04:04;;;;;;;15.30;10.43;;;8.80;99.90;;;;;;5008219;28;20237;-81
2022/04/15 04:06:30;;;;;;;13.50;10.33;;;8.80;99.90;;;;;;5008036;28;20203;-81
2022/04/15 04:08:57;;;;;;;14.70;9.77;;;8.80;99.90;;;;;;5009075;28;20211;-82
2022/04/15 04:11:25;;;;;;;13.10;8.53;;;8.80;99.90;;;;;;5008822;28;20246;-82
2022/04/15 04:13:51;;;;;;;11.67;9.00;;;8.80;99.90;;;;;;5009546;28;20211;-81
2022/04/15 04:16:20;;;;;;;11.43;8.60;;;8.70;99.90;;;;;;5008412;28;20510;-81
2022/04/15 04:18:46;;;;;;;12.03;9.20;;;8.70;99.90;;;;;;5007645;28;20195;-82
2022/04/15 04:21:13;;;;;;;12.90;8.53;;;8.80;99.90;;;;;;5008277;28;20511;-80
2022/04/15 04:23:40;;;;;;;14.33;9.23;;;8.70;99.90;;;;;;5009837;28;20793;-84
2022/04/15 04:26:07;;;;;;;11.37;8.87;;;8.70;99.90;;;;;;5008388;28;20210;-80
2022/04/15 04:28:34;;;;;;;16.90;9.37;;;8.70;99.90;;;;;;5009094;28;20199;-79
2022/04/15 04:31:00;;;;;;;12.00;9.13;;;8.70;99.90;;;;;;5009422;28;20250;-81
2022/04/15 04:33:28;;;;;;;10.77;8.97;;;8.60;99.90;;;;;;5024270;28;20881;-82
2022/04/15 04:35:56;;;;;;;11.17;8.60;;;8.60;99.90;;;;;;5023070;28;20199;-83
2022/04/15 04:38:23;;;;;;;15.97;10.03;;;8.60;99.90;;;;;;5008890;28;20235;-83
2022/04/15 04:40:49;;;;;;;15.57;9.87;;;8.50;99.90;;;;;;5008829;28;20202;-81
2022/04/15 04:43:16;;;;;;;15.47;11.10;;;8.50;99.90;;;;;;5014771;28;20219;-80
2022/04/15 04:45:44;;;;;;;13.20;9.70;;;8.40;99.90;;;;;;5027736;28;20602;-82
2022/04/15 04:48:11;;;;;;;10.30;9.03;;;8.40;99.90;;;;;;5027648;28;20198;-81
2022/04/15 04:50:40;;;;;;;10.77;8.80;;;8.40;99.90;;;;;;5027868;28;20202;-82
2022/04/15 04:53:07;;;;;;;11.53;8.63;;;8.30;99.90;;;;;;5011616;28;20214;-82
2022/04/15 04:55:33;;;;;;;10.47;8.53;;;8.30;99.90;;;;;;5011158;28;20203;-82
2022/04/15 04:58:00;;;;;;;14.30;10.10;;;8.30;99.90;;;;;;5012825;28;20505;-82
2022/04/15 05:00:27;;;;;;;11.40;8.90;;;8.30;99.90;;;;;;5011340;28;20249;-81
2022/04/15 05:02:54;;;;;;;14.70;10.87;;;8.20;99.90;;;;;;4993045;28;20226;-78
2022/04/15 05:05:21;;;;;;;13.23;9.00;;;8.30;99.90;;;;;;5008712;28;20207;-84
2022/04/15 05:07:49;;;;;;;17.20;9.90;;;8.20;99.90;;;;;;5008581;28;20329;-82
2022/04/15 05:10:15;;;;;;;11.13;9.40;;;8.20;99.90;;;;;;5010061;28;20656;-83
2022/04/15 05:12:42;;;;;;;11.57;8.70;;;8.20;99.90;;;;;;5009500;28;20235;-82
2022/04/15 05:15:11;;;;;;;9.73;7.30;;;8.10;99.90;;;;;;5009464;28;20204;-82
2022/04/15 05:17:38;;;;;;;12.47;8.87;;;8.20;99.90;;;;;;5011052;28;20211;-82
2022/04/15 05:20:07;;;;;;;11.63;9.13;;;8.20;99.90;;;;;;5011058;28;20214;-83
2022/04/15 05:22:34;;;;;;;18.80;10.67;;;8.20;99.90;;;;;;5010888;28;20235;-82
2022/04/15 05:25:02;;;;;;;17.97;10.43;;;8.10;99.90;;;;;;5011309;28;20223;-83
2022/04/15 05:27:29;;;;;;;20.13;11.27;;;8.10;99.90;;;;;;5010251;28;20211;-83
2022/04/15 05:29:55;;;;;;;16.57;9.60;;;8.20;99.90;;;;;;5012015;28;20227;-83
2022/04/15 05:32:22;;;;;;;13.57;9.43;;;8.10;99.90;;;;;;5010759;28;20210;-82
2022/04/15 05:34:49;;;;;;;11.00;9.83;;;8.20;99.90;;;;;;5010842;28;20210;-83
2022/04/15 05:37:16;;;;;;;15.33;10.53;;;8.20;99.90;;;;;;5023972;28;20209;-82
2022/04/15 05:39:42;;;;;;;16.40;10.30;;;8.20;99.90;;;;;;5029201;28;20209;-84
2022/04/15 05:42:11;;;;;;;15.43;11.33;;;8.30;99.90;;;;;;5010308;28;20206;-82
2022/04/15 05:44:37;;;;;;;15.60;10.53;;;8.30;99.90;;;;;;5011118;28;20235;-83
2022/04/15 05:47:05;;;;;;;18.57;10.30;;;8.30;99.90;;;;;;5009100;28;20206;-83
2022/04/15 05:49:34;;;;;;;15.97;10.03;;;8.30;99.90;;;;;;5013281;28;20272;-82
2022/04/15 05:52:01;;;;;;;18.67;11.67;;;8.30;99.90;;;;;;5009815;28;20271;-82
2022/04/15 05:54:27;;;;;;;16.03;11.13;;;8.40;99.90;;;;;;5009396;28;20207;-83
2022/04/15 05:56:54;;;;;;;15.93;11.60;;;8.40;99.90;;;;;;5008838;28;20215;-83
2022/04/15 05:59:23;;;;;;;15.33;12.10;;;8.40;99.90;;;;;;5008626;28;20606;-83
2022/04/15 06:01:51;;;;;;;20.13;12.93;;;8.50;99.90;;;;;;5008651;28;20634;-83
2022/04/15 06:04:18;;;;;;;21.83;12.17;;;8.60;99.90;;;;;;5007871;28;20223;-83
2022/04/15 06:06:46;;;;;;;18.57;11.57;;;8.60;99.90;;;;;;5027891;28;20215;-82
2022/04/15 06:09:13;;;;;;;14.20;11.37;;;8.50;99.90;;;;;;5027388;28;20415;-83
2022/04/15 06:11:41;;;;;;;15.83;11.20;;;8.60;99.90;;;;;;5006823;28;20235;-83
2022/04/15 06:14:07;;;;;;;13.87;10.80;;;8.60;99.90;;;;;;5007911;28;20870;-83
2022/04/15 06:16:37;;;;;;;14.90;10.37;;;8.70;99.90;;;;;;5008925;28;20214;-83
2022/04/15 06:19:05;;;;;;;12.97;10.13;;;8.70;99.90;;;;;;5010114;28;20428;-81
2022/04/15 06:21:32;;;;;;;15.93;10.43;;;8.70;99.90;;;;;;5008519;28;20271;-83
2022/04/15 06:23:59;;;;;;;11.83;8.70;;;8.80;99.90;;;;;;5008910;28;20223;-82
2022/04/15 06:26:26;;;;;;;13.33;8.90;;;8.80;99.90;;;;;;5016776;28;20214;-82
2022/04/15 06:28:53;;;;;;;13.50;9.13;;;8.80;99.90;;;;;;5030078;28;20600;-82
2022/04/15 06:31:21;;;;;;;10.37;8.17;;;8.90;99.90;;;;;;5010037;28;20222;-82
2022/04/15 06:33:52;;;;;;;14.90;9.83;;;8.90;99.90;;;;;;4991246;28;20196;-83
2022/04/15 06:36:19;;;;;;;13.17;9.53;;;8.90;99.90;;;;;;5010738;28;20305;-86
2022/04/15 06:38:46;;;;;;;11.00;9.20;;;9.00;99.90;;;;;;5009866;28;20537;-83
2022/04/15 06:41:14;;;;;;;10.13;9.00;;;9.00;99.90;;;;;;5010596;28;20210;-83
2022/04/15 06:43:41;;;;;;;11.80;8.73;;;9.10;99.90;;;;;;5007362;28;20239;-83
2022/04/15 06:46:08;;;;;;;11.37;9.37;;;9.10;99.90;;;;;;5008913;28;20231;-83
2022/04/15 06:48:35;;;;;;;13.83;9.33;;;9.20;99.90;;;;;;5016985;28;20214;-82
2022/04/15 06:51:04;;;;;;;13.30;10.27;;;9.30;99.90;;;;;;5027853;28;20207;-81
2022/04/15 06:53:31;;;;;;;9.93;8.90;;;9.30;99.90;;;;;;5026525;28;20596;-82
2022/04/15 06:55:59;;;;;;;16.00;9.20;;;9.40;99.90;;;;;;5028998;28;20225;-84
2022/04/15 06:58:26;;;;;;;11.77;7.90;;;9.50;99.90;;;;;;5028913;28;20225;-82
2022/04/15 07:00:53;;;;;;;12.10;8.20;;;9.60;99.90;;;;;;5018498;28;20285;-83
2022/04/15 07:03:19;;;;;;;10.30;7.77;;;9.70;99.90;;;;;;5008655;28;20229;-84
2022/04/15 07:05:46;;;;;;;9.60;6.23;;;9.80;99.90;;;;;;5008505;28;20222;-84
2022/04/15 07:08:15;;;;;;;8.07;5.43;;;9.90;99.90;;;;;;5008938;28;20222;-82
2022/04/15 07:10:42;;;;;;;7.30;5.10;;;10.00;99.90;;;;;;5008682;28;20226;-82
2022/04/15 07:13:09;;;;;;;8.20;5.60;;;10.00;99.90;;;;;;5009782;28;20223;-85
2022/04/15 07:15:36;;;;;;;7.50;5.87;;;10.20;99.90;;;;;;5009146;28;20607;-83
2022/04/15 07:18:04;;;;;;;7.57;6.67;;;10.30;99.90;;;;;;5029136;28;20210;-84
2022/04/15 07:20:30;;;;;;;7.20;6.00;;;10.30;99.90;;;;;;5025625;28;20211;-83
2022/04/15 07:22:58;;;;;;;6.90;5.10;;;10.40;99.90;;;;;;5015548;28;20234;-87
2022/04/15 07:25:27;;;;;;;5.23;3.70;;;10.40;99.90;;;;;;5028595;28;20235;-85
2022/04/15 07:27:55;;;;;;;3.67;3.33;;;10.50;99.90;;;;;;5015866;28;20211;-82
2022/04/15 07:30:22;;;;;;;5.40;3.10;;;10.40;99.90;;;;;;5004963;28;20226;-83
2022/04/15 07:32:49;;;;;;;5.57;3.37;;;10.50;99.90;;;;;;5007781;28;20544;-83
2022/04/15 07:35:16;;;;;;;4.63;3.30;;;10.60;99.90;;;;;;5009411;28;20208;-84
2022/04/15 07:37:43;;;;;;;7.50;3.93;;;10.60;99.90;;;;;;5015339;28;20215;-85
2022/04/15 07:40:11;;;;;;;9.27;4.53;;;10.70;99.90;;;;;;5009183;28;20207;-84
2022/04/15 07:42:40;;;;;;;5.77;3.77;;;10.80;99.90;;;;;;5010061;28;20218;-86
2022/04/15 07:45:08;;;;;;;5.60;3.57;;;10.80;99.90;;;;;;5007972;28;20231;-85
2022/04/15 07:47:35;;;;;;;4.33;3.93;;;10.80;99.90;;;;;;5006101;28;20382;-79
2022/04/15 07:50:02;;;;;;;6.83;4.00;;;10.70;99.90;;;;;;5022569;28;20222;-78
2022/04/15 07:52:29;;;;;;;5.23;3.77;;;10.90;99.90;;;;;;5023050;28;20870;-82
2022/04/15 07:54:56;;;;;;;6.17;4.00;;;10.90;99.90;;;;;;5019471;28;20229;-79
2022/04/15 07:57:26;;;;;;;5.13;4.03;;;11.00;99.90;;;;;;5013574;28;20215;-78
2022/04/15 07:59:54;;;;;;;5.77;4.40;;;11.10;99.90;;;;;;5014413;28;20210;-79
2022/04/15 08:02:21;;;;;;;6.57;4.03;;;11.30;99.90;;;;;;5017244;28;20217;-87
2022/04/15 08:04:48;;;;;;;6.60;4.03;;;11.40;99.90;;;;;;5026626;28;20237;-87
2022/04/15 08:07:14;;;;;;;7.03;3.90;;;11.40;99.90;;;;;;5028483;28;20211;-81
2022/04/15 08:09:41;;;;;;;5.47;3.90;;;11.30;99.90;;;;;;5018676;28;20210;-80
2022/04/15 08:12:09;;;;;;;8.80;4.23;;;11.30;99.90;;;;;;5018716;28;20638;-78
2022/04/15 08:14:36;;;;;;;8.50;4.47;;;11.30;99.90;;;;;;5024514;28;20886;-80
2022/04/15 08:17:05;;;;;;;6.77;3.50;;;11.40;99.90;;;;;;5011332;28;20205;-78
2022/04/15 08:19:33;;;;;;;4.03;3.27;;;11.60;99.90;;;;;;5004879;28;20238;-83
2022/04/15 08:22:00;;;;;;;9.00;3.90;;;11.70;99.90;;;;;;5011598;28;20244;-87
2022/04/15 08:24:27;;;;;;;6.37;3.53;;;11.90;99.90;;;;;;5025415;28;20230;-80
2022/04/15 08:26:56;;;;;;;5.43;3.23;;;11.80;99.90;;;;;;5021451;28;20305;-79
2022/04/15 08:29:23;;;;;;;3.27;2.97;;;11.80;99.90;;;;;;5016748;28;20203;-82
2022/04/15 08:31:53;;;;;;;4.30;3.43;;;11.80;99.90;;;;;;5020173;28;20606;-81
2022/04/15 08:34:21;;;;;;;3.77;3.30;;;11.80;99.90;;;;;;5021492;28;20219;-87
2022/04/15 08:36:48;;;;;;;4.73;3.17;;;11.80;99.90;;;;;;5018600;28;20222;-86
2022/04/15 08:39:15;;;;;;;5.07;3.40;;;11.90;99.90;;;;;;5024376;28;20249;-88
2022/04/15 08:41:43;;;;;;;4.73;3.50;;;11.90;99.90;;;;;;5017076;28;20218;-88
2022/04/15 08:44:10;;;;;;;4.17;3.13;;;12.10;99.90;;;;;;5018458;28;20610;-85
2022/04/15 08:46:37;;;;;;;3.27;2.97;;;12.50;99.90;;;;;;5025193;28;20215;-86
2022/04/15 08:49:05;;;;;;;4.03;3.10;;;12.60;99.90;;;;;;5028643;28;20401;-89
2022/04/15 08:51:35;;;;;;;5.40;3.63;;;12.70;99.90;;;;;;5028544;28;20290;-90
2022/04/15 08:54:04;;;;;;;3.47;3.10;;;12.70;99.90;;;;;;5026218;28;20203;-90
2022/04/15 08:56:31;;;;;;;3.77;3.13;;;12.60;99.90;;;;;;5022885;28;20270;-87
2022/04/15 08:58:58;;;;;;;4.53;3.67;;;12.70;99.90;;;;;;5027010;28;21762;-90
2022/04/15 09:01:26;;;;;;;4.63;3.70;;;12.60;99.90;;;;;;5021028;28;20773;-89
2022/04/15 09:03:53;;;;;;;3.60;3.30;;;12.70;99.90;;;;;;5025693;28;20619;-87
2022/04/15 09:06:20;;;;;;;3.53;2.97;;;12.60;99.90;;;;;;5013019;28;20515;-88
2022/04/15 09:09:02;;;;;;;4.60;2.93;;;12.60;99.90;;;;;;5013067;28;20207;-88
2022/04/15 09:11:34;;;;;;;4.07;3.10;;;12.70;99.90;;;;;;5020099;28;20265;-87
2022/04/15 09:14:10;;;;;;;3.47;3.17;;;12.70;99.90;;;;;;5031878;28;20214;-81
2022/04/15 09:16:41;;;;;;;3.20;2.90;;;12.70;99.90;;;;;;5015425;28;20207;-85
2022/04/15 09:19:09;;;;;;;5.10;2.90;;;12.70;99.90;;;;;;5032617;28;20288;-85
2022/04/15 09:21:36;;;;;;;3.00;2.80;;;12.60;99.90;;;;;;5031915;28;20285;-84
2022/04/15 09:24:05;;;;;;;4.43;3.03;;;12.80;99.90;;;;;;5027353;28;20277;-86
2022/04/15 09:26:32;;;;;;;4.47;3.73;;;13.00;99.90;;;;;;5011776;28;20286;-82
2022/04/15 09:28:59;;;;;;;3.43;2.60;;;13.10;99.90;;;;;;5030559;28;20662;-83
2022/04/15 09:31:26;;;;;;;3.87;2.30;;;13.30;99.90;;;;;;5015384;28;20203;-78
2022/04/15 09:33:55;;;;;;;2.97;2.50;;;13.30;99.90;;;;;;5012786;28;20230;-88
2022/04/15 09:36:26;;;;;;;3.00;2.67;;;13.40;99.90;;;;;;5031396;28;20222;-86
2022/04/15 09:38:58;;;;;;;3.73;2.60;;;13.50;99.90;;;;;;5032219;28;20235;-83
2022/04/15 09:41:29;;;;;;;5.63;2.87;;;13.80;99.90;;;;;;5030077;28;20198;-80
2022/04/15 09:43:57;;;;;;;4.27;2.80;;;13.90;99.90;;;;;;5015536;28;20238;-81
2022/04/15 09:46:26;;;;;;;3.10;2.73;;;13.90;99.90;;;;;;5006718;28;20215;-81
2022/04/15 09:49:09;;;;;;;3.63;2.77;;;13.90;99.90;;;;;;5016240;28;20225;-77
2022/04/15 09:51:38;;;;;;;3.90;2.83;;;14.00;99.90;;;;;;5025996;28;20214;-80
2022/04/15 09:54:11;;;;;;;5.70;3.20;;;13.80;99.90;;;;;;5013221;28;20218;-78
2022/04/15 09:56:43;;;;;;;5.33;3.07;;;13.80;99.90;;;;;;5005908;28;20273;-80
2022/04/15 09:59:12;;;;;;;4.30;3.60;;;14.00;99.90;;;;;;5007083;28;20261;-78
2022/04/15 10:01:45;;;;;;;3.63;3.00;;;14.00;99.90;;;;;;5006062;28;20277;-79
2022/04/15 10:04:13;;;;;;;7.97;3.83;;;14.00;99.90;;;;;;5008616;28;20265;-80
2022/04/15 10:06:41;;;;;;;4.57;2.90;;;14.00;99.90;;;;;;5018032;28;20214;-83
2022/04/15 10:09:11;;;;;;;5.37;3.80;;;13.80;99.90;;;;;;5027397;28;20206;-77
2022/04/15 10:11:42;;;;;;;5.47;3.60;;;13.90;99.90;;;;;;5028987;28;20222;-84
2022/04/15 10:14:12;;;;;;;6.60;3.37;;;13.90;99.90;;;;;;5025000;28;20521;-84
2022/04/15 10:16:40;;;;;;;5.50;4.03;;;14.00;99.90;;;;;;5009001;28;20200;-79
2022/04/15 10:19:08;;;;;;;4.83;3.70;;;13.90;99.90;;;;;;5008875;28;20245;-82
2022/04/15 10:21:37;;;;;;;5.50;3.80;;;14.00;99.90;;;;;;5009288;28;20662;-83
2022/04/15 10:24:07;;;;;;;5.53;4.03;;;13.90;99.90;;;;;;5009589;28;20230;-86
2022/04/15 10:26:35;;;;;;;6.50;4.43;;;13.80;99.90;;;;;;5009935;28;20330;-80
2022/04/15 10:29:05;;;;;;;4.97;4.17;;;13.90;99.90;;;;;;5009102;28;20246;-83
2022/04/15 10:31:39;;;;;;;4.20;3.30;;;14.20;99.90;;;;;;5008318;28;20206;-82
2022/04/15 10:34:11;;;;;;;6.23;4.10;;;14.40;99.90;;;;;;5014965;28;20292;-76
2022/04/15 10:36:38;;;;;;;5.90;4.07;;;14.60;99.90;;;;;;5029270;28;20258;-83
2022/04/15 10:39:19;;;;;;;7.73;3.80;;;15.00;99.90;;;;;;5032315;28;20199;-81
2022/04/15 10:41:53;;;;;;;4.90;3.53;;;15.00;99.90;;;;;;5014347;28;20213;-84
2022/04/15 10:44:30;;;;;;;4.00;3.07;;;14.80;99.90;;;;;;5010342;28;20223;-80
2022/04/15 10:47:04;;;;;;;4.50;3.40;;;15.10;99.90;;;;;;5010988;28;20293;-77
2022/04/15 10:49:31;;;;;;;4.03;3.63;;;15.40;99.90;;;;;;5024687;28;20249;-77
2022/04/15 10:52:02;;;;;;;4.07;3.40;;;15.70;99.90;;;;;;5025116;28;20293;-81
2022/04/15 10:54:40;;;;;;;4.00;3.00;;;15.90;99.90;;;;;;5028747;28;20202;-82
2022/04/15 10:57:14;;;;;;;6.60;3.53;;;16.10;99.90;;;;;;5027341;28;20222;-82
2022/04/15 11:02:43;;;;;;;5.25;3.28;;;16.50;99.90;;;;;;5007484;28;20840;-81
2022/04/15 11:05:13;;;;;;;3.85;3.35;;;16.10;99.90;;;;;;5007197;28;20226;-81
2022/04/15 11:07:50;;;;;;;5.47;3.67;;;15.90;99.90;;;;;;5007707;28;20784;-81
2022/04/15 11:10:20;;;;;;;6.28;3.83;;;16.00;99.90;;;;;;5007268;28;20199;-81
2022/04/15 11:12:46;;;;;;;6.55;4.28;;;15.70;99.90;;;;;;5007942;28;20245;-85
2022/04/15 11:15:18;;;;;;;4.33;3.57;;;15.70;99.90;;;;;;5008361;28;20205;-82
2022/04/15 11:17:47;;;;;;;5.23;3.40;;;15.80;99.90;;;;;;5007486;28;20941;-80
2022/04/15 11:20:14;;;;;;;7.95;4.10;;;16.20;99.90;;;;;;5005420;28;20210;-80
2022/04/15 11:22:42;;;;;;;6.70;3.90;;;16.40;99.90;;;;;;5005788;28;20235;-82
2022/04/15 11:25:10;;;;;;;5.47;3.53;;;16.40;99.90;;;;;;5006751;28;20733;-83
2022/04/15 11:27:39;;;;;;;4.88;3.58;;;16.30;99.90;;;;;;5026626;28;20256;-82
2022/04/15 11:30:13;;;;;;;6.30;3.83;;;15.80;99.90;;;;;;5029412;28;20285;-78
2022/04/15 11:32:47;;;;;;;5.65;4.30;;;15.60;99.90;;;;;;5029469;28;20296;-85
2022/04/15 11:35:27;;;;;;;4.88;4.03;;;15.50;99.90;;;;;;5018933;28;20603;-82
2022/04/15 11:37:56;;;;;;;3.97;3.57;;;15.60;99.90;;;;;;5010307;28;20657;-81
2022/04/15 11:40:24;;;;;;;5.57;4.00;;;15.80;99.90;;;;;;5008204;28;20218;-85
2022/04/15 11:42:56;;;;;;;4.22;3.83;;;15.70;99.90;;;;;;5006940;28;20198;-81
2022/04/15 11:45:33;;;;;;;5.57;4.00;;;15.50;99.90;;;;;;5006232;28;20277;-80
2022/04/15 11:48:15;;;;;;;5.47;4.20;;;15.10;99.90;;;;;;5017159;28;20198;-78
2022/04/15 11:50:50;;;;;;;5.27;4.00;;;14.50;99.90;;;;;;5025549;28;20273;-76
2022/04/15 11:53:18;;;;;;;5.93;4.63;;;14.40;99.90;;;;;;5026229;28;20284;-80
2022/04/15 11:55:50;;;;;;;4.83;4.03;;;14.00;99.90;;;;;;5006368;28;20214;-83
2022/04/15 11:58:17;;;;;;;3.87;3.53;;;14.10;99.90;;;;;;5011648;28;20260;-79
2022/04/15 12:00:51;;;;;;;4.53;3.77;;;14.20;99.90;;;;;;5025670;28;20198;-82
2022/04/15 12:03:18;;;;;;;5.20;3.67;;;14.00;99.90;;;;;;5024892;28;20233;-82
2022/04/15 12:05:45;;;;;;;3.87;3.50;;;14.00;99.90;;;;;;5020579;28;20238;-82
2022/04/15 12:08:11;;;;;;;6.27;3.73;;;13.80;99.90;;;;;;5006465;28;20662;-85
2022/04/15 12:10:39;;;;;;;3.80;3.50;;;13.80;99.90;;;;;;5007338;28;20235;-82
2022/04/15 12:13:07;;;;;;;4.93;3.87;;;13.80;99.90;;;;;;5006085;28;20227;-83
2022/04/15 12:15:34;;;;;;;4.20;3.80;;;13.80;99.90;;;;;;5017025;28;20206;-83
2022/04/15 12:18:06;;;;;;;3.67;3.30;;;13.80;99.90;;;;;;5028871;28;20218;-82
2022/04/15 12:20:36;;;;;;;6.33;3.77;;;13.80;99.90;;;;;;5021238;28;20222;-84
2022/04/15 12:23:04;;;;;;;5.07;3.70;;;13.60;99.90;;;;;;5008566;28;20235;-84
2022/04/15 12:26:06;;;;;;;3.70;3.37;;;13.80;99.90;;;;;;5013265;28;20310;-85
2022/04/15 12:31:05;;;;;;;4.07;3.50;;;14.20;99.90;;;;;;5019457;28;20659;-83
2022/04/15 12:33:33;;;;;;;4.60;3.50;;;14.30;99.90;;;;;;5013715;28;20199;-84
2022/04/15 12:36:02;;;;;;;5.90;3.63;;;14.40;99.90;;;;;;5033274;28;20211;-85
2022/04/15 12:38:58;;;;;;;4.33;3.30;;;14.40;99.90;;;;;;5030499;28;20186;-84
2022/04/15 12:49:33;;;;;;;4.97;3.63;;;14.40;99.90;;;;;;5030034;28;20222;-85
2022/04/15 12:52:12;;;;;;;4.97;3.03;;;14.50;99.90;;;;;;5013607;28;20599;-83
2022/04/15 12:54:59;;;;;;;3.90;3.17;;;14.60;99.90;;;;;;5013604;28;20230;-85
2022/04/15 12:57:32;;;;;;;4.77;2.93;;;14.40;99.90;;;;;;5012473;28;20361;-84
2022/04/15 13:00:00;;;;;;;3.07;2.47;;;14.50;99.90;;;;;;5012899;28;20202;-83
2022/04/15 13:02:29;;;;;;;3.67;3.07;;;14.60;99.90;;;;;;5012258;28;20199;-84